YAMB

RAAF Base Amberley Airport

Australia
TAF YAMB 181712Z 1818/1912 VRB03KT 9999 SCT025 FM182300 35008KT 9999 FEW035 FM190200 03012KT 9999 FEW045
Issued Valid From Valid To
Jan-18 @ 17:12 UTC
(3 hours ago)
Jan-18 @ 18:00 UTC
(2 hours ago)
Jan-19 @ 12:00 UTC
(in 16 hours)
Jan-18 @ 18:00 to Jan-18 @ 23:00
TAF YAMB 181712Z 1818/1912 VRB03KT 9999 SCT025
Wind Visibility Clouds
Variable at 3 knots 10,000+ meters
  • Scattered at 2,500' AGL
From Jan-18 @ 23:00 to Jan-19 @ 02:00
FM182300 35008KT 9999 FEW035
Wind Visibility Clouds
350° at 8 knots 10,000+ meters
  • Few at 3,500' AGL
From Jan-19 @ 02:00 to Jan-19 @ 12:00
FM190200 03012KT 9999 FEW045
Wind Visibility Clouds
30° at 12 knots 10,000+ meters
  • Few at 4,500' AGL
TAF YAMB 181712Z 1818/1912 VRB03KT 9999 SCT025 FM182300 35008KT 9999 FEW035 FM190200 03012KT 9999 FEW045
Issued Jan-18 @ 17:12 UTC
(3 hours ago)
Valid From Jan-18 @ 18:00 UTC
(2 hours ago)
Valid To Jan-19 @ 12:00 UTC
(in 16 hours)
Jan-18 @ 18:00 - Jan-18 @ 23:00
Wind Visibility
Variable at 3 knots 10,000+ meters
Clouds
  • Scattered at 2,500' AGL
From Jan-18 @ 23:00 - Jan-19 @ 02:00
Wind Visibility
350° at 8 knots 10,000+ meters
Clouds
  • Few at 3,500' AGL
From Jan-19 @ 02:00 - Jan-19 @ 12:00
Wind Visibility
30° at 12 knots 10,000+ meters
Clouds
  • Few at 4,500' AGL